Terminal Aerodrome Forecast
Issued by NWS

Home | Current Version | Previous Version | Text Only | Print | Product List | Glossary On
Versions: 1 2 3 4 5 6 7 8 9 10 11 12 13 14 15 16 17 18 19 20 21 22
000
FTUS44 KLZK 300411 AAA
TAFLIT
TAF AMD
KLIT 300411Z 3004/3024 14015G25KT 5SM TSRA BR SCT025 OVC040CB
      TEMPO 3004/3008 VRB15G30KT 1SM +TSRA BR OVC015CB
     FM300800 18012KT 5SM TSRA BR BKN015 OVC030CB
     FM301500 24010G20KT P6SM BKN040
     FM301900 25015G25KT P6SM BKN050=

USA.gov is the U.S. government's official web portal to all federal, state and local government web resources and services.